Time;durP1;ratioP1;P1;durP2;ratioP2;P2;SDS_P1;SDS_P2;PMS_P1;PMS_P2;Temp;Humidity;BMP_temperature;BMP_pressure;BME280_temperature;BME280_humidity;BME280_pressure;Samples;Min_cycle;Max_cycle;Signal;HPM_P1;HPM_P2
2021/03/10 00:01:20;;;;;;;9.93;5.92;;;;;;;-7.73;68.73;101153.86;1757028;80;22398;-72
2021/03/10 00:03:48;;;;;;;11.45;6.28;;;;;;;-7.81;68.77;101149.98;1747663;80;21061;-73
2021/03/10 00:06:16;;;;;;;9.45;6.10;;;;;;;-7.81;68.77;101149.98;1775523;80;21086;-71
2021/03/10 00:08:43;;;;;;;9.58;5.50;;;;;;;-7.80;68.79;101152.55;1773337;80;21200;-72
2021/03/10 00:11:10;;;;;;;10.05;5.90;;;;;;;-7.81;68.86;101152.55;1757492;81;21053;-71
2021/03/10 00:13:39;;;;;;;11.05;6.35;;;;;;;-7.83;68.89;101143.53;1767002;79;23059;-72
2021/03/10 00:16:08;;;;;;;10.72;5.72;;;;;;;-7.84;68.95;101146.95;1776837;79;21071;-71
2021/03/10 00:18:36;;;;;;;8.55;5.33;;;;;;;-7.84;68.99;101148.66;1778299;79;21058;-73
2021/03/10 00:21:05;;;;;;;9.55;5.67;;;;;;;-7.88;68.93;101143.94;1770836;79;21170;-71
2021/03/10 00:23:32;;;;;;;8.03;5.25;;;;;;;-7.91;68.97;101143.92;1750174;80;21452;-71
2021/03/10 00:25:59;;;;;;;8.50;5.33;;;;;;;-7.94;69.05;101145.58;1742374;82;22505;-71
2021/03/10 00:28:27;;;;;;;7.95;5.25;;;;;;;-7.97;69.12;101145.14;1739873;80;21121;-72
2021/03/10 00:30:54;;;;;;;9.35;5.55;;;;;;;-7.96;69.12;101144.30;1741361;82;21680;-75
2021/03/10 00:33:22;;;;;;;8.85;4.87;;;;;;;-7.98;69.18;101146.00;1732176;80;21190;-74
2021/03/10 00:35:49;;;;;;;8.88;5.37;;;;;;;-8.00;69.19;101145.13;1724051;80;21172;-72
2021/03/10 00:38:17;;;;;;;8.75;5.05;;;;;;;-8.02;69.26;101146.80;1737838;80;21919;-71
2021/03/10 00:40:44;;;;;;;7.42;4.72;;;;;;;-8.02;69.32;101139.53;1737527;80;21192;-73
2021/03/10 00:43:12;;;;;;;6.83;4.55;;;;;;;-8.03;69.40;101150.20;1738631;80;21163;-71
2021/03/10 00:45:39;;;;;;;6.55;4.45;;;;;;;-8.02;69.43;101143.38;1737586;80;21064;-71
2021/03/10 00:48:07;;;;;;;7.12;4.22;;;;;;;-8.02;69.42;101142.09;1732085;80;21088;-72
2021/03/10 00:50:35;;;;;;;7.95;4.62;;;;;;;-8.04;69.38;101140.80;1723977;80;22062;-73
2021/03/10 00:53:02;;;;;;;8.03;4.53;;;;;;;-8.06;69.41;101143.78;1735357;80;21014;-71
2021/03/10 00:55:30;;;;;;;8.58;4.25;;;;;;;-8.09;69.39;101141.20;1762787;79;21086;-71
2021/03/10 00:57:57;;;;;;;7.87;4.33;;;;;;;-8.13;69.41;101144.14;1768292;79;21136;-71
2021/03/10 01:00:25;;;;;;;7.37;3.85;;;;;;;-8.16;69.40;101137.72;1727161;81;21161;-71
2021/03/10 01:02:52;;;;;;;7.90;4.30;;;;;;;-8.20;69.39;101134.70;1751956;81;22068;-71
2021/03/10 01:05:20;;;;;;;5.42;3.72;;;;;;;-8.21;69.34;101138.51;1750246;80;21068;-72
2021/03/10 01:07:47;;;;;;;8.00;4.90;;;;;;;-8.25;69.37;101137.63;1753090;81;21071;-71
2021/03/10 01:10:15;;;;;;;6.28;4.10;;;;;;;-8.27;69.38;101140.61;1743787;81;21143;-71
2021/03/10 01:12:42;;;;;;;5.78;4.17;;;;;;;-8.28;69.39;101129.92;1727387;81;21143;-71
2021/03/10 01:15:15;;;;;;;6.78;3.98;;;;;;;-8.29;69.44;101133.34;1757266;81;22835;-71
2021/03/10 01:17:42;;;;;;;5.58;3.50;;;;;;;-8.30;69.45;101132.88;1760417;81;21167;-71
2021/03/10 01:20:15;;;;;;;6.87;4.30;;;;;;;-8.33;69.46;101134.13;1742509;81;21538;-71
2021/03/10 01:22:43;;;;;;;7.70;4.12;;;;;;;-8.35;69.46;101133.72;1712480;81;21136;-71
2021/03/10 01:25:11;;;;;;;6.47;3.90;;;;;;;-8.39;69.49;101134.98;1755580;81;21487;-71
2021/03/10 01:27:38;;;;;;;7.87;4.17;;;;;;;-8.40;69.52;101137.50;1758492;81;22944;-71
2021/03/10 01:30:08;;;;;;;6.95;4.12;;;;;;;-8.40;69.54;101133.66;1737711;81;21160;-71
2021/03/10 01:32:36;;;;;;;7.55;4.22;;;;;;;-8.41;69.57;101134.51;1735647;81;21156;-71
2021/03/10 01:35:04;;;;;;;6.80;4.00;;;;;;;-8.42;69.59;101136.64;1752824;81;21735;-71
2021/03/10 01:37:32;;;;;;;6.92;4.50;;;;;;;-8.45;69.62;101137.47;1742157;81;21147;-71
2021/03/10 01:40:00;;;;;;;6.47;4.40;;;;;;;-8.46;69.71;101139.60;1749581;80;21899;-71
2021/03/10 01:42:27;;;;;;;8.50;4.50;;;;;;;-8.46;69.76;101133.20;1772698;80;21173;-71
2021/03/10 01:44:54;;;;;;;7.12;4.37;;;;;;;-8.47;69.79;101133.19;1753006;81;21162;-71
2021/03/10 01:47:22;;;;;;;7.60;4.37;;;;;;;-8.48;69.89;101135.31;1751552;80;21511;-72
2021/03/10 01:49:50;;;;;;;7.12;4.40;;;;;;;-8.48;69.96;101134.89;1748162;81;21070;-71
2021/03/10 01:52:17;;;;;;;7.08;4.35;;;;;;;-8.47;70.02;101137.89;1732785;81;22052;-71
2021/03/10 01:54:45;;;;;;;6.78;4.08;;;;;;;-8.48;70.10;101127.20;1748500;80;21132;-71
2021/03/10 01:57:12;;;;;;;8.60;4.70;;;;;;;-8.45;70.15;101137.89;1750364;81;21166;-71
2021/03/10 01:59:41;;;;;;;7.22;4.00;;;;;;;-8.46;70.23;101137.05;1739933;81;21446;-71
2021/03/10 02:02:08;;;;;;;6.50;4.45;;;;;;;-8.44;70.29;101135.77;1748959;81;21216;-72
2021/03/10 02:04:38;;;;;;;7.28;4.25;;;;;;;-8.44;70.36;101139.19;1759433;81;22066;-71
2021/03/10 02:07:44;;;;;;;8.28;4.83;;;;;;;-8.42;70.41;101140.48;1777088;80;21600;-72
2021/03/10 02:10:46;;;;;;;10.20;6.08;;;;;;;-8.41;70.47;101143.05;1797423;79;21153;-71
2021/03/10 02:13:44;;;;;;;15.18;7.05;;;;;;;-8.39;70.49;101148.22;1746908;82;21125;-72
2021/03/10 02:16:27;;;;;;;12.07;6.92;;;;;;;-8.39;70.49;101152.92;1709853;82;22699;-71
2021/03/10 02:19:02;;;;;;;12.23;7.17;;;;;;;-8.37;70.47;101155.48;1750098;80;22979;-70
2021/03/10 02:21:53;;;;;;;9.88;6.55;;;;;;;-8.37;70.45;101151.65;1732312;81;21090;-70
2021/03/10 02:24:29;;;;;;;11.33;6.53;;;;;;;-8.42;70.39;101147.74;1748605;81;21132;-71
2021/03/10 02:30:07;;;;;;;9.90;6.43;;;;;;;-8.48;70.32;101154.10;1873497;76;22900;-71
2021/03/10 02:32:39;;;;;;;15.00;8.35;;;;;;;-8.55;70.29;101161.70;1838562;78;21237;-71
2021/03/10 02:35:09;;;;;;;18.67;10.48;;;;;;;-8.60;70.34;101150.11;1813134;78;22093;-71
2021/03/10 02:37:41;;;;;;;13.25;8.50;;;;;;;-8.64;70.38;101151.35;1812444;78;21091;-71
2021/03/10 02:40:11;;;;;;;16.20;9.28;;;;;;;-8.66;70.39;101153.91;1807007;79;21183;-72
2021/03/10 02:42:38;;;;;;;15.35;8.60;;;;;;;-8.66;70.44;101152.62;1805210;78;21044;-71
2021/03/10 02:45:07;;;;;;;14.47;8.03;;;;;;;-8.66;70.39;101155.18;1778028;79;21051;-72
2021/03/10 02:47:36;;;;;;;13.22;7.87;;;;;;;-8.69;70.43;101153.42;1797676;79;22103;-72
2021/03/10 02:50:07;;;;;;;12.35;7.58;;;;;;;-8.68;70.45;101157.73;1806777;78;21143;-71
2021/03/10 02:52:34;;;;;;;12.28;7.50;;;;;;;-8.69;70.46;101157.69;1808149;79;21100;-71
2021/03/10 02:55:02;;;;;;;13.78;8.03;;;;;;;-8.69;70.47;101162.38;1781311;79;21455;-73
2021/03/10 02:57:34;;;;;;;15.38;8.60;;;;;;;-8.69;70.45;101153.84;1797780;79;21127;-73
2021/03/10 03:00:11;;;;;;;13.45;8.33;;;;;;;-8.70;70.49;101154.69;1802703;79;22480;-71
2021/03/10 03:02:38;;;;;;;15.00;8.78;;;;;;;-8.70;70.52;101158.11;1799477;79;21723;-71
2021/03/10 03:05:08;;;;;;;17.67;9.15;;;;;;;-8.71;70.56;101155.11;1796305;79;21127;-70
2021/03/10 03:07:38;;;;;;;15.43;9.05;;;;;;;-8.74;70.61;101153.81;1796149;78;21146;-72
2021/03/10 03:10:09;;;;;;;16.27;9.45;;;;;;;-8.76;70.70;101163.60;1788555;78;21143;-72
2021/03/10 03:12:42;;;;;;;15.10;9.38;;;;;;;-8.76;70.75;101158.48;1777459;79;22119;-70
2021/03/10 03:15:13;;;;;;;15.32;8.90;;;;;;;-8.74;70.83;101161.91;1776635;80;21075;-70
2021/03/10 03:17:41;;;;;;;13.72;9.05;;;;;;;-8.73;70.87;101167.05;1784190;79;20935;-71
2021/03/10 03:20:11;;;;;;;17.35;9.75;;;;;;;-8.73;70.93;101162.34;1808250;78;21052;-71
2021/03/10 03:22:52;;;;;;;15.13;9.53;;;;;;;-8.72;70.97;101167.48;1805192;79;21123;-70
2021/03/10 03:25:26;;;;;;;15.72;9.35;;;;;;;-8.71;71.00;101164.50;1797480;79;23235;-71
2021/03/10 03:27:59;;;;;;;13.83;8.70;;;;;;;-8.71;71.03;101164.50;1788768;79;21178;-70
2021/03/10 03:30:31;;;;;;;15.18;9.33;;;;;;;-8.68;71.03;101165.41;1796655;79;21149;-72
2021/03/10 03:33:00;;;;;;;15.13;8.67;;;;;;;-8.68;70.98;101159.44;1802260;79;21166;-71
2021/03/10 03:35:27;;;;;;;15.63;9.50;;;;;;;-8.72;70.94;101165.34;1794739;79;21499;-70
2021/03/10 03:37:54;;;;;;;14.78;8.85;;;;;;;-8.75;70.90;101167.88;1761530;79;22498;-72
2021/03/10 03:40:23;;;;;;;11.93;7.65;;;;;;;-8.79;70.90;101165.68;1811851;79;21494;-72
2021/03/10 03:42:51;;;;;;;14.13;7.60;;;;;;;-8.82;70.87;101168.64;1790123;79;21071;-70
2021/03/10 03:45:21;;;;;;;12.28;7.95;;;;;;;-8.86;70.90;101167.75;1793380;79;21067;-70
2021/03/10 03:47:52;;;;;;;13.58;7.67;;;;;;;-8.90;70.88;101174.94;1808104;79;21527;-71
2021/03/10 03:50:20;;;;;;;16.12;8.40;;;;;;;-8.95;70.91;101169.77;1808291;79;21610;-71
2021/03/10 03:52:48;;;;;;;13.50;8.48;;;;;;;-8.96;70.95;101171.04;1804747;79;21083;-71
2021/03/10 03:55:15;;;;;;;10.90;7.05;;;;;;;-8.96;70.94;101175.73;1792838;79;21400;-71
2021/03/10 03:57:43;;;;;;;13.08;7.92;;;;;;;-8.99;70.99;101170.98;1797672;79;21126;-71
2021/03/10 04:00:19;;;;;;;13.63;7.17;;;;;;;-9.02;71.02;101176.06;1806091;79;21996;-71
2021/03/10 04:02:47;;;;;;;14.45;8.35;;;;;;;-9.08;71.11;101176.83;1781003;79;22062;-71
2021/03/10 04:05:16;;;;;;;17.73;10.55;;;;;;;-9.11;71.12;101179.36;1797047;79;21107;-71
2021/03/10 04:07:57;;;;;;;17.82;10.43;;;;;;;-9.12;71.17;101174.23;1797944;79;21115;-71
2021/03/10 04:10:32;;;;;;;16.85;10.32;;;;;;;-9.12;71.23;101179.34;1809930;78;21569;-71
2021/03/10 04:12:59;;;;;;;16.48;10.05;;;;;;;-9.11;71.30;101174.24;1812858;79;21162;-71
2021/03/10 04:15:28;;;;;;;16.50;9.63;;;;;;;-9.10;71.36;101176.37;1807120;79;21875;-71
2021/03/10 04:17:56;;;;;;;17.02;9.30;;;;;;;-9.09;71.37;101183.22;1805108;79;21134;-70
2021/03/10 04:20:24;;;;;;;16.77;8.23;;;;;;;-9.09;71.36;101181.94;1785004;79;21142;-71
2021/03/10 04:22:51;;;;;;;15.65;9.50;;;;;;;-9.12;71.37;101181.91;1792154;79;21196;-73
2021/03/10 04:25:19;;;;;;;14.75;8.53;;;;;;;-9.14;71.41;101178.47;1786010;79;21250;-71
2021/03/10 04:27:46;;;;;;;15.32;9.43;;;;;;;-9.16;71.44;101184.00;1801506;78;21875;-71
2021/03/10 04:30:15;;;;;;;25.80;14.35;;;;;;;-9.20;71.48;101177.95;1777953;79;21163;-71
2021/03/10 04:32:42;;;;;;;23.77;13.80;;;;;;;-9.21;71.51;101186.48;1791116;79;21139;-72
2021/03/10 04:35:11;;;;;;;18.10;10.72;;;;;;;-9.20;71.58;101193.73;1810014;78;21056;-71
2021/03/10 04:37:40;;;;;;;21.80;11.85;;;;;;;-9.21;71.64;101183.06;1796725;79;21087;-73
2021/03/10 04:40:09;;;;;;;47.95;22.93;;;;;;;-9.22;71.67;101184.76;1788476;79;22573;-70
2021/03/10 04:42:38;;;;;;;97.53;46.77;;;;;;;-9.21;71.74;101180.50;1785380;79;21119;-71
2021/03/10 04:45:11;;;;;;;35.08;18.62;;;;;;;-9.20;71.81;101186.91;1796466;79;21139;-70
2021/03/10 04:47:42;;;;;;;36.65;20.75;;;;;;;-9.17;71.87;101192.06;1785619;78;24182;-71
2021/03/10 04:50:11;;;;;;;59.23;34.83;;;;;;;-9.13;71.91;101195.55;1815651;79;21039;-71
2021/03/10 04:52:39;;;;;;;30.25;18.95;;;;;;;-9.11;71.94;101189.59;1811482;78;22130;-70
2021/03/10 04:55:08;;;;;;;25.90;15.00;;;;;;;-9.06;71.98;101198.63;1792146;79;21216;-71
2021/03/10 04:57:37;;;;;;;20.35;12.47;;;;;;;-9.03;71.99;101196.11;1797721;79;21102;-71
2021/03/10 05:00:08;;;;;;;21.23;11.88;;;;;;;-8.99;72.03;101196.16;1797419;77;21142;-74
2021/03/10 05:02:36;;;;;;;19.87;11.68;;;;;;;-8.94;72.10;101200.06;1809624;78;21123;-69
2021/03/10 05:05:08;;;;;;;16.35;10.55;;;;;;;-8.89;72.15;101198.41;1786891;79;21567;-70
2021/03/10 05:07:36;;;;;;;20.02;11.55;;;;;;;-8.85;72.19;101195.06;1811786;79;21099;-70
2021/03/10 05:10:06;;;;;;;16.62;9.15;;;;;;;-8.80;72.21;101195.11;1805929;79;21592;-76
2021/03/10 05:12:34;;;;;;;23.30;12.73;;;;;;;-8.75;72.31;101206.28;1796521;79;21186;-72
2021/03/10 05:15:02;;;;;;;23.55;13.45;;;;;;;-8.70;72.47;101201.64;1813073;78;21530;-69
2021/03/10 05:17:30;;;;;;;23.77;12.93;;;;;;;-8.62;72.58;101203.02;1785198;78;22101;-72
2021/03/10 05:19:58;;;;;;;24.98;14.73;;;;;;;-8.53;72.66;101211.23;1809299;79;21154;-71
2021/03/10 05:22:25;;;;;;;26.10;14.13;;;;;;;-8.46;72.73;101206.63;1805233;79;21140;-68
2021/03/10 05:24:54;;;;;;;32.20;16.82;;;;;;;-8.39;72.78;101210.56;1800024;79;21093;-71
2021/03/10 05:27:21;;;;;;;32.40;17.48;;;;;;;-8.28;72.85;101207.22;1807182;78;21409;-72
2021/03/10 05:29:49;;;;;;;34.13;18.82;;;;;;;-8.18;72.96;101215.44;1813852;79;22058;-71
2021/03/10 05:32:18;;;;;;;42.78;21.33;;;;;;;-8.07;73.04;101217.27;1805603;79;21139;-68
2021/03/10 05:34:45;;;;;;;45.10;23.47;;;;;;;-7.95;73.17;101221.64;1793630;79;21436;-72
2021/03/10 05:37:13;;;;;;;65.42;32.38;;;;;;;-7.79;73.28;101222.65;1781321;80;21075;-71
2021/03/10 05:39:41;;;;;;;67.03;30.82;;;;;;;-7.67;73.32;101225.31;1785285;79;21064;-73
2021/03/10 05:42:09;;;;;;;93.55;40.45;;;;;;;-7.55;73.42;101221.98;1783160;79;21937;-73
2021/03/10 05:44:36;;;;;;;95.83;39.80;;;;;;;-7.43;73.46;101224.67;1782342;79;21182;-72
2021/03/10 05:47:06;;;;;;;89.75;42.80;;;;;;;-7.33;73.50;101225.17;1780307;80;21594;-73
2021/03/10 05:49:35;;;;;;;91.92;40.63;;;;;;;-7.21;73.57;101230.37;1780033;80;21590;-75
2021/03/10 05:52:05;;;;;;;98.42;42.33;;;;;;;-7.06;73.65;101233.45;1781973;79;21064;-72
2021/03/10 05:54:35;;;;;;;82.25;38.83;;;;;;;-6.94;73.70;101230.98;1733390;82;22066;-71
2021/03/10 05:57:06;;;;;;;56.80;27.35;;;;;;;-6.79;73.77;101228.04;1747440;81;21133;-71
2021/03/10 05:59:34;;;;;;;70.78;32.78;;;;;;;-6.64;73.81;101232.84;1756069;80;21579;-71
2021/03/10 06:02:02;;;;;;;59.40;32.13;;;;;;;-6.52;73.81;101238.45;1741723;81;21068;-71
2021/03/10 06:04:40;;;;;;;61.10;31.90;;;;;;;-6.43;73.88;101229.49;1756033;80;21082;-71
2021/03/10 06:07:24;;;;;;;70.50;35.40;;;;;;;-6.31;73.88;101232.95;1754999;81;22496;-71
2021/03/10 06:10:02;;;;;;;64.55;30.57;;;;;;;-6.19;73.87;101239.41;1755281;80;21134;-72
2021/03/10 06:12:43;;;;;;;60.58;30.68;;;;;;;-6.07;73.81;101239.03;1755926;81;21089;-71
2021/03/10 06:15:13;;;;;;;45.05;23.92;;;;;;;-5.94;73.66;101242.48;1755982;81;21064;-71
2021/03/10 06:17:46;;;;;;;47.60;24.37;;;;;;;-5.83;73.42;101242.45;1748555;81;21092;-71
2021/03/10 06:20:27;;;;;;;;;;;;;;;-5.77;73.29;101245.91;1739898;81;22178;-71
2021/03/10 06:22:55;;;;;;;48.42;24.90;;;;;;;-5.66;73.12;101245.06;1753909;81;20360;-71
2021/03/10 06:25:24;;;;;;;26.33;13.60;;;;;;;-5.54;72.93;101249.77;1756001;81;21502;-70
2021/03/10 06:27:57;;;;;;;18.05;9.90;;;;;;;-5.37;72.67;101245.06;1755947;81;21211;-72
2021/03/10 06:30:38;;;;;;;17.35;8.90;;;;;;;-5.20;71.83;101250.64;1734986;81;21156;-71
2021/03/10 06:33:06;;;;;;;15.38;9.73;;;;;;;-5.05;71.17;101250.17;1745209;80;22078;-71
2021/03/10 06:35:34;;;;;;;16.73;9.05;;;;;;;-4.93;70.77;101248.42;1731040;81;21606;-71
2021/03/10 06:38:16;;;;;;;35.33;19.00;;;;;;;-4.81;70.40;101242.84;1717060;83;21096;-72
2021/03/10 06:40:56;;;;;;;19.10;9.33;;;;;;;-4.70;69.96;101248.39;1703050;82;21171;-71
2021/03/10 06:43:37;;;;;;;20.43;10.43;;;;;;;-4.59;69.27;101250.07;1750333;80;21175;-71
2021/03/10 06:46:18;;;;;;;24.60;13.32;;;;;;;-4.52;68.67;101247.47;1750389;82;22517;-71
2021/03/10 06:49:03;;;;;;;27.65;11.28;;;;;;;-4.44;68.17;101249.59;1750129;80;21173;-71
2021/03/10 06:51:32;;;;;;;26.50;13.05;;;;;;;-4.37;67.99;101252.55;1744466;82;21121;-72
2021/03/10 06:53:59;;;;;;;23.12;11.75;;;;;;;-4.27;67.85;101249.50;1717115;82;21079;-72
2021/03/10 06:56:29;;;;;;;27.10;13.30;;;;;;;-4.13;67.66;101252.03;1717150;83;21132;-72
2021/03/10 06:59:00;;;;;;;26.37;13.83;;;;;;;-4.02;67.02;101254.11;1720112;82;21993;-73
2021/03/10 07:01:42;;;;;;;23.40;10.90;;;;;;;-3.93;66.73;101249.33;1739828;80;21480;-72
2021/03/10 07:04:12;;;;;;;22.27;12.35;;;;;;;-3.81;66.34;101253.12;1749737;80;21061;-73
2021/03/10 07:06:40;;;;;;;20.95;11.18;;;;;;;-3.70;66.16;101253.90;1750333;81;21122;-72
2021/03/10 07:09:13;;;;;;;17.77;9.28;;;;;;;-3.61;65.66;101255.13;1736123;82;21141;-72
2021/03/10 07:11:45;;;;;;;25.12;13.08;;;;;;;-3.51;64.93;101250.75;1750423;82;21955;-72
2021/03/10 07:14:13;;;;;;;28.50;15.28;;;;;;;-3.49;64.49;101254.17;1750393;80;21072;-72
2021/03/10 07:16:41;;;;;;;24.15;12.20;;;;;;;-3.46;64.21;101246.42;1750206;82;21331;-72
2021/03/10 07:19:10;;;;;;;22.87;11.12;;;;;;;-3.40;64.04;101254.53;1722858;82;21085;-72
2021/03/10 07:21:45;;;;;;;24.92;14.10;;;;;;;-3.36;63.16;101253.23;1725889;82;21113;-73
2021/03/10 07:24:17;;;;;;;28.85;14.93;;;;;;;-3.31;62.98;101251.88;1750472;80;23002;-72
2021/03/10 07:26:45;;;;;;;30.00;12.33;;;;;;;-3.25;62.75;101246.23;1743437;82;21571;-72
2021/03/10 07:29:13;;;;;;;20.02;11.53;;;;;;;-3.17;62.45;101250.91;1748987;82;21069;-72
2021/03/10 07:31:40;;;;;;;27.48;12.18;;;;;;;-3.08;62.36;101252.98;1747465;81;21394;-72
2021/03/10 07:34:08;;;;;;;20.90;11.25;;;;;;;-3.02;61.99;101246.45;1749767;81;21151;-72
2021/03/10 07:36:41;;;;;;;27.05;14.00;;;;;;;-2.92;62.10;101248.06;1734275;81;22489;-73
2021/03/10 07:39:31;;;;;;;27.65;14.40;;;;;;;-2.82;61.76;101244.95;1720706;82;21077;-72
2021/03/10 07:42:14;;;;;;;23.52;10.85;;;;;;;-2.75;61.28;101251.34;1720626;82;21068;-72
2021/03/10 07:44:55;;;;;;;21.52;12.15;;;;;;;-2.77;60.63;101251.80;1747794;80;21053;-72
2021/03/10 07:47:22;;;;;;;31.52;12.95;;;;;;;-2.76;60.05;101250.92;1727452;82;21077;-73
2021/03/10 07:49:58;;;;;;;21.87;12.93;;;;;;;-2.73;59.93;101255.20;1750396;81;21817;-72
2021/03/10 07:52:28;;;;;;;23.98;13.22;;;;;;;-2.72;59.77;101248.71;1750064;82;21160;-72
2021/03/10 07:55:00;;;;;;;21.02;11.57;;;;;;;-2.68;59.24;101238.77;1749804;81;21420;-72
2021/03/10 07:57:27;;;;;;;22.77;11.78;;;;;;;-2.65;58.71;101241.75;1744598;82;21167;-72
2021/03/10 08:00:02;;;;;;;20.00;11.12;;;;;;;-2.67;58.54;101237.89;1748973;82;21144;-72
2021/03/10 08:02:47;;;;;;;17.85;9.45;;;;;;;-2.64;58.66;101238.28;1748279;82;23084;-73
2021/03/10 08:05:26;;;;;;;12.98;6.50;;;;;;;-2.57;58.28;101242.52;1737568;82;21319;-72
2021/03/10 08:08:13;;;;;;;13.30;5.90;;;;;;;-2.52;57.76;101234.26;1749837;82;21168;-72
2021/03/10 08:10:42;;;;;;;9.63;5.47;;;;;;;-2.52;57.50;101231.67;1748743;80;21093;-72
2021/03/10 08:13:20;;;;;;;12.40;6.60;;;;;;;-2.50;57.08;101232.53;1745087;82;21037;-73
2021/03/10 08:15:48;;;;;;;13.22;6.55;;;;;;;-2.48;56.89;101235.95;1746433;82;22147;-72
2021/03/10 08:18:22;;;;;;;13.80;6.87;;;;;;;-2.44;56.84;101232.44;1746052;82;21148;-72
2021/03/10 08:20:49;;;;;;;10.28;5.55;;;;;;;-2.46;56.34;101229.46;1749821;82;21044;-72
2021/03/10 08:23:17;;;;;;;8.33;4.87;;;;;;;-2.44;55.88;101231.59;1749045;82;21124;-73
2021/03/10 08:25:52;;;;;;;12.43;4.95;;;;;;;-2.45;55.17;101229.44;1747260;82;21152;-73
2021/03/10 08:28:20;;;;;;;7.75;4.47;;;;;;;-2.45;54.85;101232.02;1750000;82;22069;-72
2021/03/10 08:30:48;;;;;;;5.67;3.40;;;;;;;-2.44;53.59;101225.97;1749871;81;21180;-75
2021/03/10 08:33:15;;;;;;;6.90;4.05;;;;;;;-2.46;52.81;101222.55;1746856;81;21478;-73
2021/03/10 08:35:49;;;;;;;7.53;4.58;;;;;;;-2.47;52.35;101227.75;1740169;82;21051;-72
2021/03/10 08:38:17;;;;;;;7.33;4.55;;;;;;;-2.46;52.68;101233.34;1750130;81;21108;-72
2021/03/10 08:40:44;;;;;;;8.48;4.28;;;;;;;-2.38;52.35;101232.38;1749823;82;22076;-72
2021/03/10 08:43:20;;;;;;;6.12;3.80;;;;;;;-2.29;52.23;101231.84;1749333;82;21137;-72
2021/03/10 08:45:47;;;;;;;9.20;5.22;;;;;;;-2.19;52.15;101226.97;1727737;82;21136;-72
2021/03/10 08:48:15;;;;;;;11.03;5.30;;;;;;;-2.10;51.13;101225.55;1729400;82;21216;-72
2021/03/10 08:50:46;;;;;;;10.40;5.70;;;;;;;-2.09;51.35;101231.99;1748886;82;21073;-72
2021/03/10 08:53:15;;;;;;;38.55;20.25;;;;;;;-2.03;51.04;101229.73;1750244;81;21955;-72
2021/03/10 08:55:45;;;;;;;43.65;22.27;;;;;;;-2.07;51.59;101239.73;1749851;81;21156;-72
2021/03/10 08:58:17;;;;;;;53.50;23.92;;;;;;;-2.12;52.54;101231.19;1750326;82;21070;-73
2021/03/10 09:00:46;;;;;;;38.28;19.55;;;;;;;-2.10;53.05;101238.48;1720850;82;21234;-72
2021/03/10 09:03:17;;;;;;;42.35;20.15;;;;;;;-2.09;52.94;101230.70;1740066;82;21192;-72
2021/03/10 09:05:51;;;;;;;37.80;18.77;;;;;;;-2.05;52.76;101233.64;1740110;81;21906;-73
2021/03/10 09:08:23;;;;;;;23.95;12.88;;;;;;;-2.04;52.37;101235.36;1669066;83;21152;-72
2021/03/10 09:10:55;;;;;;;39.75;18.82;;;;;;;-2.11;52.21;101234.19;1726760;82;21164;-72
2021/03/10 09:13:35;;;;;;;27.10;12.70;;;;;;;-2.07;52.39;101230.67;1860045;75;27267;-72
2021/03/10 09:16:10;;;;;;;28.60;14.45;;;;;;;-2.03;52.43;101237.50;1808422;79;21080;-72
2021/03/10 09:18:40;;;;;;;26.85;13.50;;;;;;;-1.94;52.32;101234.78;1807404;79;21716;-72
2021/03/10 09:21:09;;;;;;;27.95;12.65;;;;;;;-1.88;51.69;101235.16;1810801;78;21570;-72
2021/03/10 09:23:39;;;;;;;20.25;10.38;;;;;;;-1.89;50.90;101239.91;1808103;78;21538;-72
2021/03/10 09:26:07;;;;;;;31.85;14.47;;;;;;;-1.91;50.67;101229.59;1809467;78;21155;-72
2021/03/10 09:28:40;;;;;;;15.85;6.80;;;;;;;-1.92;50.63;101229.61;1814035;78;21094;-72
2021/03/10 09:31:28;;;;;;;7.90;4.25;;;;;;;-1.88;50.61;101226.94;1824143;78;22056;-72
2021/03/10 09:34:05;;;;;;;8.85;4.00;;;;;;;-1.84;49.71;101224.71;1824512;78;21158;-72
2021/03/10 09:36:34;;;;;;;7.65;3.65;;;;;;;-1.74;49.46;101226.31;1808096;79;21060;-73
2021/03/10 09:39:05;;;;;;;8.10;4.22;;;;;;;-1.63;49.47;101230.47;1740407;80;21441;-73
2021/03/10 09:41:38;;;;;;;7.40;3.77;;;;;;;-1.55;49.01;101221.67;1798098;78;21591;-73
2021/03/10 09:44:08;;;;;;;9.65;6.47;;;;;;;-1.38;48.38;101223.99;1841422;78;22214;-70
2021/03/10 09:46:42;;;;;;;6.78;3.75;;;;;;;-1.23;48.77;101212.08;1841495;78;21143;-70
2021/03/10 09:49:12;;;;;;;5.45;3.27;;;;;;;-0.98;48.58;101220.70;1811399;78;21317;-70
2021/03/10 09:51:48;;;;;;;6.33;3.17;;;;;;;-0.73;46.97;101227.14;1833319;77;21460;-70
2021/03/10 09:54:26;;;;;;;6.53;4.60;;;;;;;-0.68;45.48;101220.11;1873488;75;28430;-72
2021/03/10 09:56:56;;;;;;;6.05;3.30;;;;;;;-0.72;45.20;101221.07;1841460;78;21092;-72
2021/03/10 09:59:34;;;;;;;7.12;3.30;;;;;;;-0.54;46.26;101215.11;1772792;79;21971;-73
2021/03/10 10:02:04;;;;;;;5.80;3.50;;;;;;;-0.24;44.05;101218.81;1749100;80;21515;-72
2021/03/10 10:04:33;;;;;;;6.22;3.77;;;;;;;-0.20;43.17;101216.55;1755878;80;21255;-72
2021/03/10 10:07:03;;;;;;;17.92;11.93;;;;;;;-0.14;43.27;101215.12;1782047;80;21116;-71
2021/03/10 10:09:33;;;;;;;7.67;4.12;;;;;;;-0.05;43.65;101219.67;1780331;80;21062;-73
2021/03/10 10:12:03;;;;;;;4.03;2.67;;;;;;;0.21;43.75;101211.30;1781822;79;21835;-72
2021/03/10 10:14:33;;;;;;;9.33;4.80;;;;;;;0.52;43.47;101207.51;1781754;80;21160;-73
2021/03/10 10:17:04;;;;;;;12.60;4.15;;;;;;;0.78;41.91;101199.06;1774766;79;21171;-70
2021/03/10 10:19:32;;;;;;;7.62;3.42;;;;;;;0.65;40.17;101194.20;1741286;80;21132;-72
2021/03/10 10:21:59;;;;;;;7.75;4.17;;;;;;;0.49;41.39;101194.59;1751625;80;21104;-71
2021/03/10 10:24:27;;;;;;;7.08;4.05;;;;;;;0.66;42.17;101201.09;1751090;82;22078;-71
2021/03/10 10:26:55;;;;;;;10.40;5.08;;;;;;;0.91;41.90;101191.78;1751000;80;21516;-71
2021/03/10 10:29:24;;;;;;;7.62;4.42;;;;;;;1.24;41.58;101189.14;1751003;80;21064;-72
2021/03/10 10:31:52;;;;;;;6.85;3.77;;;;;;;1.50;40.86;101191.88;1751117;80;21077;-71
2021/03/10 10:34:23;;;;;;;6.90;4.00;;;;;;;1.66;40.34;101180.12;1752161;80;21148;-71
2021/03/10 10:36:50;;;;;;;7.72;4.80;;;;;;;1.82;40.77;101187.00;1751078;82;21950;-72
2021/03/10 10:39:21;;;;;;;9.48;5.40;;;;;;;2.06;40.76;101180.20;1750757;80;21135;-72
2021/03/10 10:41:48;;;;;;;9.03;5.15;;;;;;;2.23;39.67;101175.77;1752343;81;21582;-72
2021/03/10 10:44:17;;;;;;;7.72;4.87;;;;;;;2.38;39.53;101175.25;1753987;81;21571;-72
2021/03/10 10:46:45;;;;;;;10.05;6.10;;;;;;;2.39;38.20;101171.73;1735823;81;21080;-73
2021/03/10 10:49:14;;;;;;;13.05;5.67;;;;;;;2.27;37.84;101174.30;1708938;82;23374;-73
2021/03/10 10:51:43;;;;;;;7.28;4.03;;;;;;;2.25;38.53;101176.11;1759240;81;21174;-73
2021/03/10 10:54:24;;;;;;;5.67;4.15;;;;;;;2.33;38.03;101171.95;1887702;75;29594;-72
2021/03/10 10:56:53;;;;;;;8.45;5.25;;;;;;;2.41;38.50;101166.47;1832023;77;21065;-72
2021/03/10 10:59:39;;;;;;;12.23;6.85;;;;;;;2.59;37.61;101161.95;1846157;75;38691;-72
2021/03/10 11:02:09;;;;;;;7.90;5.10;;;;;;;2.73;37.34;101163.65;1827384;78;21104;-72
2021/03/10 11:04:39;;;;;;;9.10;4.87;;;;;;;2.95;37.67;101162.44;1835547;77;21519;-73
2021/03/10 11:07:09;;;;;;;7.08;4.35;;;;;;;3.11;37.18;101161.00;1821733;78;21192;-74
2021/03/10 11:09:39;;;;;;;9.08;4.87;;;;;;;3.26;37.21;101149.59;1841540;78;21096;-72
2021/03/10 11:12:11;;;;;;;6.47;3.92;;;;;;;3.35;36.62;101150.09;1810939;78;21162;-72
2021/03/10 11:14:40;;;;;;;8.33;4.75;;;;;;;3.39;36.59;101146.94;1841319;78;21155;-72
2021/03/10 11:17:09;;;;;;;6.42;3.98;;;;;;;3.45;36.46;101150.61;1841291;78;21722;-72
2021/03/10 11:19:42;;;;;;;8.15;4.50;;;;;;;3.57;35.21;101142.75;1791001;79;21094;-72
2021/03/10 11:22:10;;;;;;;6.53;4.08;;;;;;;3.45;34.31;101138.39;1751507;80;21049;-72
2021/03/10 11:24:38;;;;;;;6.42;3.87;;;;;;;3.34;34.98;101134.04;1763172;80;21188;-73
2021/03/10 11:27:07;;;;;;;6.03;3.85;;;;;;;3.21;34.60;101143.70;1751172;82;21595;-72
2021/03/10 11:29:36;;;;;;;6.20;3.70;;;;;;;3.26;35.97;101135.23;1751114;82;22066;-72
2021/03/10 11:32:08;;;;;;;8.25;4.47;;;;;;;3.42;35.10;101134.61;1749754;82;21183;-72
2021/03/10 11:34:37;;;;;;;6.22;4.20;;;;;;;3.45;35.20;101134.48;1781963;80;21192;-72
2021/03/10 11:37:05;;;;;;;6.35;3.87;;;;;;;3.50;34.84;101130.86;1782002;80;21049;-72
2021/03/10 11:39:33;;;;;;;5.67;3.87;;;;;;;3.49;34.75;101131.31;1756433;80;21073;-72